AirNav   Pilot Hours Calculator
 
 626 users online  

MN87 Cooks Landing Airport
Ham Lake, Minnesota, USA

GOING TO HAM LAKE?


FAA INFORMATION EFFECTIVE 07 NOVEMBER 2019

Location

FAA Identifier: MN87
Lat/Long: 45-14-37.0000N 093-13-18.0000W
45-14.616667N 093-13.300000W
45.2436111,-93.2216667
(estimated)
Elevation: 905 ft. / 276 m (estimated)
Variation: 03E (1995)
From city: 1 mile ESE of HAM LAKE, MN
Time zone: UTC -6 (UTC -5 during Daylight Saving Time)
Zip code: 55304

Airport Operations

Airport use: Private use. Permission required prior to landing
Activation date: 03/2000
Control tower: no
ARTCC: MINNEAPOLIS CENTER
FSS: PRINCETON FLIGHT SERVICE STATION
Attendance: UNATNDD
Wind indicator: yes
Segmented circle: no

Airport Communications

WX AWOS-3 at ANE (6 nm S): PHONE 763-780-9025
WX ASOS at MIC (12 nm SW): PHONE 763-531-2343
WX AWOS-3 at CBG (19 nm N): 121.125 (763-689-9562)
WX ASOS at STP (20 nm S): PHONE 651-298-1410

Nearby radio navigation aids

VOR radial/distance  VOR name  Freq  Var
GEPr041/8.7GOPHER VORTAC117.3006E
MSPr360/20.8MINNEAPOLIS VOR/DME115.3002E
FCMr019/26.8FLYING CLOUD VOR/DME117.7001E
FGTr351/36.8FARMINGTON VORTAC115.7006E
STCr114/39.7ST CLOUD VOR/DME112.1003E

 
NDB name  Hdg/Dist  Freq  Var  ID
CAMBRIDGE174/18.935001ECBG -.-. -... --.
HOPEY329/25.240003EPPI .--. .--. ..
PRINCETON137/25.236803EPNM .--. -. --
RUSH CITY200/29.428202EROS .-. --- ...
MORA177/38.932700WJMR .--- -- .-.

Airport Services

Runway Information

Runway 18/36

Dimensions: 1070 x 120 ft. / 326 x 37 m
Surface: turf
RUNWAY 18  RUNWAY 36
Traffic pattern: leftleft
Displaced threshold: no500 ft.
RY 36 DSPLCD THLD MKD WITH WHITE HORSE FENCING.
Obstructions: none25 ft. pline, 500 ft. from runway

Airport Ownership and Management from official FAA records

Ownership: Privately-owned
Owner: CHARLES S. COOK
1845 149TH AVE
HAM LAKE, MN 55304
Phone (612) 701-2816
Manager: CHARLES S. COOK
1845 149TH AVE
HAM LAKE, MN 55304
Phone 612-757-7568

Additional Remarks

DO NOT CHART PER MINNESOTA DEPARTMENT OF TRANSPORTATION
FOR CD CTC MINNEAPOLIS ARTCC AT 651-463-5588.

Instrument Procedures

There are no published instrument procedures at MN87.

Some nearby airports with instrument procedures:

KANE - Anoka County-Blaine Airport (Janes Field) (6 nm S)
KMIC - Crystal Airport (12 nm SW)
KCBG - Cambridge Municipal Airport (19 nm N)
KSTP - St Paul Downtown Airport Holman Field (20 nm S)
21D - Lake Elmo Airport (21 nm SE)
 
Loc | Ops | Rwys | IFR | FBO | Links
Com | Nav | Svcs | Stats | Notes
Area around MN87 (Cooks Landing Airport)
 
Road maps at: MapQuest Bing Google
 
Aerial photo
No photo
 
Sectional chart

 
Airport distance calculator
Flying to Cooks Landing Airport? Find the distance to fly.

From to MN87

Sunrise and sunset
Times for 18-Nov-2019
 Local
(UTC-6)
 Zulu
(UTC)
Morning civil twilight06:4412:44
Sunrise07:1613:16
Sunset16:4022:40
Evening civil twilight17:1223:12

Current date and time
Zulu (UTC)  19-Nov-2019 05:17:02
Local (UTC-6)  18-Nov-2019 23:17:02
 
METAR
KANE 
7nm S 
190456Z AUTO 00000KT 10SM OVC010 02/M01 A2968 RMK AO2
KMIC 
12nm SW 
190453Z 16004KT 10SM OVC011 02/M01 A2968 RMK AO2 SLP058 T00171011
KCBG 
19nm N 
190455Z AUTO 00000KT 10SM OVC010 01/M03 A2969 RMK AO2
KSTP 
20nm S 
190453Z AUTO 12003KT 10SM OVC012 02/M02 A2971 RMK AO2 SLP064 T00171017
TAF
NOTAMs
Click for the latest NOTAMs
NOTAMs are issued by the DoD/FAA and will open in a separate window not controlled by AirNav.

 

 
 

Would you like to see your business listed on this page?

 If your business provides an interesting product or service to pilots, flight crews, aircraft, or users of the Cooks Landing Airport, you should consider listing it here.  To start the listing process, click on the button below
 
Add a business
 

Other Pages about Cooks Landing Airport

Update a link
 
Copyright © AirNav, LLC. All rights reserved. Privacy Policy  Contact